createdAt,value
2022-12-20T00:01:52.981Z,3.57
2022-12-20T00:04:21.073Z,3.57
2022-12-20T00:06:48.917Z,3.52
2022-12-20T00:09:16.921Z,3.49
2022-12-20T00:11:44.598Z,3.45
2022-12-20T00:14:12.673Z,3.43
2022-12-20T00:16:40.328Z,3.43
2022-12-20T00:19:10.806Z,3.41
2022-12-20T00:21:38.754Z,3.41
2022-12-20T00:24:07.412Z,3.38
2022-12-20T00:26:36.393Z,3.37
2022-12-20T00:29:06.459Z,3.32
2022-12-20T00:31:35.396Z,3.36
2022-12-20T00:34:03.590Z,3.39
2022-12-20T00:36:33.156Z,3.40
2022-12-20T00:39:02.253Z,3.44
2022-12-20T00:41:33.922Z,3.43
2022-12-20T00:44:03.021Z,3.43
2022-12-20T00:46:32.055Z,3.45
2022-12-20T00:49:00.741Z,3.47
2022-12-20T00:51:31.290Z,3.46
2022-12-20T00:53:59.310Z,3.45
2022-12-20T00:56:27.058Z,3.43
2022-12-20T00:58:59.913Z,3.43
2022-12-20T01:01:32.011Z,3.43
2022-12-20T01:04:00.804Z,3.45
2022-12-20T01:06:30.033Z,3.48
2022-12-20T01:08:59.256Z,3.49
2022-12-20T01:11:34.255Z,3.51
2022-12-20T01:14:18.286Z,3.51
2022-12-20T01:16:48.270Z,3.55
2022-12-20T01:19:18.440Z,3.58
2022-12-20T01:21:46.574Z,3.62
2022-12-20T01:24:18.294Z,3.61
2022-12-20T01:26:46.918Z,3.60
2022-12-20T01:29:15.595Z,3.61
2022-12-20T01:31:44.249Z,3.59
2022-12-20T01:34:12.661Z,3.59
2022-12-20T01:36:40.985Z,3.61
2022-12-20T01:39:14.575Z,3.62
2022-12-20T01:41:45.413Z,3.61
2022-12-20T01:44:19.399Z,3.64
2022-12-20T01:46:49.958Z,3.63
2022-12-20T01:49:30.712Z,3.64
2022-12-20T01:52:08.669Z,3.64
2022-12-20T01:55:00.540Z,3.60
2022-12-20T01:57:49.670Z,3.59
2022-12-20T02:00:18.006Z,3.54
2022-12-20T02:02:49.410Z,3.47
2022-12-20T02:05:21.297Z,3.43
2022-12-20T02:07:54.345Z,3.45
2022-12-20T02:10:30.166Z,3.44
2022-12-20T02:13:11.007Z,3.43
2022-12-20T02:15:58.952Z,3.50
2022-12-20T02:19:00.359Z,3.53
2022-12-20T02:21:50.853Z,3.49
2022-12-20T02:24:58.910Z,3.43
2022-12-20T02:27:41.259Z,3.39
2022-12-20T02:30:12.355Z,3.31
2022-12-20T02:32:56.612Z,3.29
2022-12-20T02:35:32.208Z,3.26
2022-12-20T02:38:35.235Z,3.23
2022-12-20T02:41:08.163Z,3.22
2022-12-20T02:44:00.527Z,3.22
2022-12-20T02:46:29.444Z,3.15
2022-12-20T02:49:03.105Z,3.14
2022-12-20T02:51:32.677Z,3.16
2022-12-20T02:54:01.799Z,3.16
2022-12-20T02:56:45.723Z,3.18
2022-12-20T02:59:50.652Z,3.20
2022-12-20T03:02:19.321Z,3.20
2022-12-20T03:04:49.999Z,3.14
2022-12-20T03:07:17.838Z,3.12
2022-12-20T03:09:46.053Z,3.10
2022-12-20T03:12:16.283Z,3.13
2022-12-20T03:14:44.618Z,3.10
2022-12-20T03:17:15.169Z,3.07
2022-12-20T03:19:43.358Z,3.08
2022-12-20T03:22:11.705Z,3.08
2022-12-20T03:24:39.704Z,3.10
2022-12-20T03:27:12.259Z,3.09
2022-12-20T03:29:40.428Z,3.08
2022-12-20T03:32:08.526Z,3.09
2022-12-20T03:34:36.562Z,3.07
2022-12-20T03:37:04.675Z,3.07
2022-12-20T03:39:32.722Z,3.05
2022-12-20T03:42:00.973Z,3.05
2022-12-20T03:44:28.947Z,3.04
2022-12-20T03:46:56.679Z,3.02
2022-12-20T03:49:24.547Z,3.00
2022-12-20T03:51:53.105Z,3.04
2022-12-20T03:54:21.283Z,3.03
2022-12-20T03:57:21.280Z,2.99
2022-12-20T03:59:52.012Z,2.96
2022-12-20T04:02:21.852Z,2.95
2022-12-20T04:04:50.873Z,2.94
2022-12-20T04:07:18.705Z,2.93
2022-12-20T04:09:48.435Z,3.00
2022-12-20T04:12:16.919Z,3.00
2022-12-20T04:14:45.465Z,2.97
2022-12-20T04:17:14.142Z,3.01
2022-12-20T04:19:42.900Z,2.97
2022-12-20T04:22:10.619Z,2.95
2022-12-20T04:24:50.866Z,2.95
2022-12-20T04:27:32.381Z,2.95
2022-12-20T04:30:01.526Z,2.91
2022-12-20T04:32:29.915Z,2.92
2022-12-20T04:34:58.304Z,2.91
2022-12-20T04:37:25.908Z,2.93
2022-12-20T04:39:56.458Z,2.92
2022-12-20T04:42:27.526Z,2.95
2022-12-20T04:44:56.650Z,2.93
2022-12-20T04:47:27.739Z,2.92
2022-12-20T04:49:56.437Z,2.89
2022-12-20T04:52:47.694Z,2.92
2022-12-20T04:55:17.333Z,2.91
2022-12-20T04:57:45.553Z,2.92
2022-12-20T05:00:15.892Z,2.93
2022-12-20T05:02:47.474Z,2.89
2022-12-20T05:05:18.904Z,2.86
2022-12-20T05:07:51.884Z,2.84
2022-12-20T05:10:20.168Z,2.84
2022-12-20T05:12:49.340Z,2.85
2022-12-20T05:15:27.443Z,2.84
2022-12-20T05:17:59.564Z,2.84
2022-12-20T05:20:34.235Z,2.84
2022-12-20T05:23:21.969Z,2.80
2022-12-20T05:26:12.766Z,2.79
2022-12-20T05:28:41.166Z,2.78
2022-12-20T05:31:09.445Z,2.78
2022-12-20T05:33:37.597Z,2.78
2022-12-20T05:36:06.830Z,2.81
2022-12-20T05:38:34.434Z,2.83
2022-12-20T05:41:05.023Z,2.83
2022-12-20T05:43:33.916Z,2.82
2022-12-20T05:46:01.940Z,2.79
2022-12-20T05:48:38.350Z,2.74
2022-12-20T05:51:06.483Z,2.75
2022-12-20T05:53:41.041Z,2.73
2022-12-20T05:56:09.325Z,2.76
2022-12-20T05:58:40.374Z,2.77
2022-12-20T06:01:10.678Z,2.72
2022-12-20T06:03:40.773Z,2.74
2022-12-20T06:06:15.600Z,2.71
2022-12-20T06:08:46.225Z,2.72
2022-12-20T06:11:35.250Z,2.66
2022-12-20T06:14:09.415Z,2.61
2022-12-20T06:16:41.862Z,2.63
2022-12-20T06:19:16.027Z,2.65
2022-12-20T06:21:47.802Z,2.66
2022-12-20T06:24:18.719Z,2.66
2022-12-20T06:26:47.482Z,2.67
2022-12-20T06:29:17.596Z,2.68
2022-12-20T06:31:52.014Z,2.72
2022-12-20T06:34:20.620Z,2.70
2022-12-20T06:36:48.717Z,2.70
2022-12-20T06:39:23.546Z,2.72
2022-12-20T06:42:05.992Z,2.74
2022-12-20T06:44:35.973Z,2.81
2022-12-20T06:47:04.561Z,3.43
2022-12-20T06:49:32.487Z,4.19
2022-12-20T06:52:00.601Z,4.93
2022-12-20T06:54:43.590Z,5.70
2022-12-20T06:57:12.076Z,6.05
2022-12-20T06:59:41.022Z,5.97
2022-12-20T07:02:12.027Z,5.89
2022-12-20T07:04:40.070Z,5.70
2022-12-20T07:07:08.183Z,5.72
2022-12-20T07:09:35.784Z,5.81
2022-12-20T07:12:03.864Z,5.70
2022-12-20T07:14:31.388Z,5.69
2022-12-20T07:16:59.518Z,5.68
2022-12-20T07:19:27.162Z,5.65
2022-12-20T07:21:55.279Z,5.71
2022-12-20T07:24:23.410Z,5.57
2022-12-20T07:26:51.302Z,5.28
2022-12-20T07:29:18.917Z,4.91
2022-12-20T07:33:03.273Z,4.59
2022-12-20T07:35:31.002Z,4.31
2022-12-20T07:37:58.967Z,4.14
2022-12-20T07:40:26.557Z,4.02
2022-12-20T07:42:54.494Z,3.93
2022-12-20T07:45:22.230Z,3.89
2022-12-20T07:47:50.159Z,3.86
2022-12-20T07:50:17.891Z,3.80
2022-12-20T07:52:47.153Z,3.79
2022-12-20T07:55:15.582Z,3.74
2022-12-20T07:57:52.947Z,3.72
2022-12-20T08:00:21.018Z,3.72
2022-12-20T08:03:01.791Z,3.76
2022-12-20T08:05:53.269Z,3.75
2022-12-20T08:08:22.224Z,3.81
2022-12-20T08:10:50.843Z,3.86
2022-12-20T08:13:19.319Z,3.91
2022-12-20T08:15:47.095Z,3.96
2022-12-20T08:18:16.277Z,4.03
2022-12-20T08:20:43.878Z,4.08
2022-12-20T08:23:12.298Z,4.15
2022-12-20T08:25:42.109Z,4.27
2022-12-20T08:28:10.590Z,4.28
2022-12-20T08:30:38.532Z,4.37
2022-12-20T08:33:06.827Z,4.38
2022-12-20T08:35:34.522Z,4.48
2022-12-20T08:38:02.502Z,4.56
2022-12-20T08:40:30.086Z,4.58
2022-12-20T08:43:01.377Z,4.58
2022-12-20T08:45:32.868Z,4.64
2022-12-20T08:48:01.034Z,4.70
2022-12-20T08:50:29.517Z,4.72
2022-12-20T08:52:57.651Z,4.67
2022-12-20T08:55:29.557Z,4.73
2022-12-20T08:57:57.702Z,4.82
2022-12-20T09:00:25.583Z,4.86
2022-12-20T09:02:55.551Z,4.95
2022-12-20T09:05:23.454Z,5.00
2022-12-20T09:07:51.245Z,4.98
2022-12-20T09:10:18.927Z,4.99
2022-12-20T09:12:46.801Z,5.03
2022-12-20T09:15:15.414Z,5.03
2022-12-20T09:17:43.248Z,5.05
2022-12-20T09:20:10.967Z,5.05
2022-12-20T09:22:38.782Z,5.06
2022-12-20T09:25:07.225Z,5.05
2022-12-20T09:27:35.109Z,5.07
2022-12-20T09:30:03.302Z,5.12
2022-12-20T09:32:31.215Z,5.16
2022-12-20T09:34:58.760Z,5.22
2022-12-20T09:37:32.313Z,5.25
2022-12-20T09:40:00.104Z,5.29
2022-12-20T09:42:30.192Z,5.33
2022-12-20T09:45:08.570Z,5.37
2022-12-20T09:47:39.202Z,5.38
2022-12-20T09:50:14.893Z,5.43
2022-12-20T09:52:51.920Z,5.45
2022-12-20T09:55:43.492Z,5.50
2022-12-20T09:58:38.976Z,5.64
2022-12-20T10:01:25.385Z,5.71
2022-12-20T10:03:56.403Z,5.78
2022-12-20T10:06:48.782Z,5.85
2022-12-20T10:09:50.312Z,5.90
2022-12-20T10:13:14.294Z,6.05
2022-12-20T10:15:52.590Z,6.10
2022-12-20T10:18:35.500Z,6.22
2022-12-20T10:21:31.995Z,6.22
2022-12-20T10:24:05.361Z,6.22
2022-12-20T10:26:34.426Z,6.25
2022-12-20T10:29:02.112Z,6.28
2022-12-20T10:31:30.400Z,6.26
2022-12-20T10:33:58.183Z,6.30
2022-12-20T10:36:27.061Z,6.32
2022-12-20T10:39:04.862Z,6.34
2022-12-20T10:41:45.353Z,6.38
2022-12-20T10:44:26.445Z,6.35
2022-12-20T10:47:00.990Z,6.35
2022-12-20T10:49:41.193Z,6.36
2022-12-20T10:52:11.580Z,6.43
2022-12-20T10:54:45.312Z,6.52
2022-12-20T10:57:33.668Z,6.58
2022-12-20T11:00:09.224Z,6.60
2022-12-20T11:02:42.475Z,6.65
2022-12-20T11:05:10.710Z,6.70
2022-12-20T11:08:33.531Z,6.81
2022-12-20T11:10:44.132Z,6.88
2022-12-20T11:13:26.636Z,6.94
2022-12-20T11:15:57.739Z,7.05
2022-12-20T11:18:37.649Z,7.18
2022-12-20T11:21:28.485Z,7.33
2022-12-20T11:24:29.052Z,7.45
2022-12-20T11:27:15.916Z,7.60
2022-12-20T11:30:05.118Z,7.73
2022-12-20T11:33:22.949Z,7.91
2022-12-20T11:36:02.642Z,7.96
2022-12-20T11:38:58.993Z,8.13
2022-12-20T11:41:58.699Z,8.26
2022-12-20T11:44:53.296Z,8.38
2022-12-20T11:48:05.806Z,8.52
2022-12-20T11:51:26.313Z,8.63
2022-12-20T11:54:06.715Z,8.75
2022-12-20T11:56:44.689Z,8.84
2022-12-20T11:59:50.636Z,9.02
2022-12-20T12:02:54.725Z,9.20
2022-12-20T12:05:39.940Z,9.44
2022-12-20T12:08:32.001Z,9.59
2022-12-20T12:12:03.988Z,9.74
2022-12-20T12:14:15.967Z,9.93
2022-12-20T12:16:51.633Z,10.13
2022-12-20T12:19:19.321Z,10.25
2022-12-20T12:22:01.657Z,10.41
2022-12-20T12:24:39.307Z,10.58
2022-12-20T12:27:24.923Z,10.71
2022-12-20T12:29:56.450Z,10.80
2022-12-20T12:32:43.969Z,10.97
2022-12-20T12:35:47.464Z,11.17
2022-12-20T12:39:14.190Z,11.38
2022-12-20T12:42:01.201Z,11.53
2022-12-20T12:44:47.082Z,11.70
2022-12-20T12:47:36.643Z,11.82
2022-12-20T12:50:10.195Z,11.95
2022-12-20T12:52:46.315Z,12.05
2022-12-20T12:55:38.516Z,12.04
2022-12-20T12:58:24.224Z,12.05
2022-12-20T13:00:55.739Z,12.00
2022-12-20T13:03:52.115Z,12.02
2022-12-20T13:06:26.286Z,12.02
2022-12-20T13:08:59.560Z,12.16
2022-12-20T13:11:33.647Z,12.22
2022-12-20T13:14:24.758Z,12.25
2022-12-20T13:19:52.633Z,12.27
2022-12-20T13:22:25.646Z,12.24
2022-12-20T13:24:57.013Z,12.31
2022-12-20T13:27:39.142Z,12.31
2022-12-20T13:30:14.545Z,12.30
2022-12-20T13:32:48.579Z,12.23
2022-12-20T13:35:25.078Z,11.98
2022-12-20T13:37:55.601Z,11.64
2022-12-20T13:40:47.930Z,11.23
2022-12-20T13:43:24.446Z,10.88
2022-12-20T13:45:56.207Z,10.48
2022-12-20T13:48:49.054Z,9.99
2022-12-20T13:51:25.923Z,9.55
2022-12-20T13:54:01.871Z,9.17
2022-12-20T13:56:33.709Z,8.84
2022-12-20T13:59:22.627Z,8.59
2022-12-20T14:01:57.817Z,8.21
2022-12-20T14:04:45.049Z,7.94
2022-12-20T14:07:18.604Z,7.71
2022-12-20T14:09:54.747Z,7.54
2022-12-20T14:12:27.543Z,7.36
2022-12-20T14:14:59.631Z,7.27
2022-12-20T14:17:32.422Z,7.16
2022-12-20T14:20:51.562Z,6.98
2022-12-20T14:23:25.192Z,6.86
2022-12-20T14:25:59.401Z,6.77
2022-12-20T14:28:46.180Z,6.67
2022-12-20T14:31:32.273Z,6.59
2022-12-20T14:34:13.526Z,6.51
2022-12-20T14:36:49.341Z,6.47
2022-12-20T14:39:34.277Z,6.31
2022-12-20T14:42:12.604Z,6.25
2022-12-20T14:44:40.551Z,6.15
2022-12-20T14:47:25.144Z,6.07
2022-12-20T14:50:00.642Z,5.95
2022-12-20T14:52:48.830Z,5.86
2022-12-20T14:55:39.712Z,5.82
2022-12-20T14:58:34.164Z,5.74
2022-12-20T15:01:27.237Z,5.69
2022-12-20T15:04:00.504Z,5.60
2022-12-20T15:06:55.196Z,5.54
2022-12-20T15:09:23.464Z,5.43
2022-12-20T15:11:52.246Z,5.41
2022-12-20T15:14:39.377Z,5.40
2022-12-20T15:17:17.176Z,5.36
2022-12-20T15:19:45.335Z,5.32
2022-12-20T15:22:20.333Z,5.29
2022-12-20T15:24:48.397Z,5.30
2022-12-20T15:27:16.491Z,5.26
2022-12-20T15:29:44.419Z,5.21
2022-12-20T15:32:29.858Z,5.17
2022-12-20T15:34:57.963Z,5.14
2022-12-20T15:37:25.634Z,5.10
2022-12-20T15:39:53.463Z,5.02
2022-12-20T15:42:23.009Z,4.99
2022-12-20T15:44:51.182Z,4.96
2022-12-20T15:47:18.734Z,4.95
2022-12-20T15:49:50.372Z,4.90
2022-12-20T15:52:24.393Z,4.89
2022-12-20T15:54:52.734Z,4.90
2022-12-20T15:57:21.217Z,4.99
2022-12-20T16:00:01.074Z,5.01
2022-12-20T16:02:39.465Z,5.04
2022-12-20T16:05:14.018Z,5.17
2022-12-20T16:07:41.799Z,5.15
2022-12-20T16:10:14.581Z,5.12
2022-12-20T16:12:42.676Z,5.00
2022-12-20T16:15:23.104Z,4.94
2022-12-20T16:17:51.196Z,4.85
2022-12-20T16:20:19.864Z,4.76
2022-12-20T16:22:48.125Z,4.66
2022-12-20T16:25:33.638Z,4.57
2022-12-20T16:28:02.606Z,4.63
2022-12-20T16:30:30.877Z,4.60
2022-12-20T16:32:59.709Z,4.48
2022-12-20T16:35:36.444Z,4.47
2022-12-20T16:38:05.856Z,4.42
2022-12-20T16:40:35.119Z,4.40
2022-12-20T16:43:02.728Z,4.34
2022-12-20T16:45:32.101Z,4.31
2022-12-20T16:47:59.949Z,4.30
2022-12-20T16:50:28.148Z,4.29
2022-12-20T16:52:56.587Z,4.23
2022-12-20T16:55:27.404Z,4.18
2022-12-20T16:57:55.202Z,4.15
2022-12-20T17:00:27.208Z,4.06
2022-12-20T17:02:55.377Z,4.10
2022-12-20T17:05:33.483Z,4.11
2022-12-20T17:08:01.472Z,4.14
2022-12-20T17:10:30.769Z,4.11
2022-12-20T17:12:58.812Z,4.19
2022-12-20T17:15:31.839Z,4.15
2022-12-20T17:17:59.457Z,4.18
2022-12-20T17:20:30.093Z,4.19
2022-12-20T17:25:53.868Z,4.12
2022-12-20T17:28:22.201Z,4.16
2022-12-20T17:30:50.654Z,4.11
2022-12-20T17:33:18.266Z,4.20
2022-12-20T17:35:46.294Z,4.22
2022-12-20T17:38:14.028Z,4.18
2022-12-20T17:40:42.018Z,4.18
2022-12-20T17:43:12.514Z,4.14
2022-12-20T17:45:41.297Z,4.08
2022-12-20T17:48:08.994Z,4.05
2022-12-20T17:50:37.230Z,4.01
2022-12-20T17:53:05.428Z,3.99
2022-12-20T17:55:33.717Z,3.96
2022-12-20T17:58:01.649Z,3.96
2022-12-20T18:00:38.791Z,3.92
2022-12-20T18:03:07.731Z,3.88
2022-12-20T18:05:39.822Z,3.87
2022-12-20T18:08:12.832Z,3.90
2022-12-20T18:10:40.739Z,3.89
2022-12-20T18:13:08.630Z,3.89
2022-12-20T18:15:39.007Z,3.93
2022-12-20T18:18:06.747Z,3.93
2022-12-20T18:20:34.582Z,3.90
2022-12-20T18:23:02.245Z,3.90
2022-12-20T18:25:30.603Z,3.87
2022-12-20T18:27:58.261Z,3.88
2022-12-20T18:30:26.322Z,3.90
2022-12-20T18:32:54.031Z,3.99
2022-12-20T18:35:22.125Z,3.98
2022-12-20T18:37:50.220Z,3.99
2022-12-20T18:40:18.747Z,3.98
2022-12-20T18:42:46.490Z,3.94
2022-12-20T18:45:14.862Z,3.89
2022-12-20T18:47:42.478Z,3.87
2022-12-20T18:50:13.341Z,3.85
2022-12-20T18:52:43.239Z,3.86
2022-12-20T18:55:15.669Z,3.84
2022-12-20T18:57:43.419Z,3.88
2022-12-20T19:00:12.791Z,3.88
2022-12-20T19:02:41.503Z,3.89
2022-12-20T19:05:09.929Z,3.89
2022-12-20T19:07:37.594Z,3.90
2022-12-20T19:10:06.202Z,3.89
2022-12-20T19:12:34.874Z,3.90
2022-12-20T19:15:02.958Z,3.94
2022-12-20T19:17:30.461Z,3.91
2022-12-20T19:19:58.353Z,3.93
2022-12-20T19:22:26.145Z,3.92
2022-12-20T19:24:55.730Z,3.96
2022-12-20T19:27:23.739Z,4.00
2022-12-20T19:29:52.996Z,3.99
2022-12-20T19:32:20.586Z,3.99
2022-12-20T19:34:48.434Z,4.00
2022-12-20T19:37:16.205Z,4.00
2022-12-20T19:39:44.165Z,4.01
2022-12-20T19:42:27.089Z,4.04
2022-12-20T19:44:55.020Z,4.00
2022-12-20T19:47:23.627Z,3.96
2022-12-20T19:49:51.528Z,3.90
2022-12-20T19:52:28.877Z,3.84
2022-12-20T19:54:57.353Z,3.80
2022-12-20T19:57:25.055Z,3.67
2022-12-20T19:59:56.186Z,3.65
2022-12-20T20:02:25.126Z,3.62
2022-12-20T20:04:53.370Z,3.63
2022-12-20T20:07:21.189Z,3.62
2022-12-20T20:09:49.042Z,3.62
2022-12-20T20:12:16.691Z,3.66
2022-12-20T20:14:44.659Z,3.69
2022-12-20T20:17:12.271Z,3.72
2022-12-20T20:19:40.769Z,3.96
2022-12-20T20:22:10.738Z,4.39
2022-12-20T20:24:38.710Z,4.71
2022-12-20T20:27:06.425Z,4.82
2022-12-20T20:29:34.400Z,4.71
2022-12-20T20:32:03.349Z,4.52
2022-12-20T20:34:31.320Z,4.43
2022-12-20T20:36:59.130Z,4.28
2022-12-20T20:39:27.159Z,4.17
2022-12-20T20:41:54.716Z,4.12
2022-12-20T20:44:22.662Z,4.04
2022-12-20T20:46:50.219Z,3.99
2022-12-20T20:49:19.830Z,3.91
2022-12-20T20:51:47.423Z,3.88
2022-12-20T20:54:15.465Z,3.85
2022-12-20T20:56:43.155Z,3.82
2022-12-20T20:59:17.301Z,3.83
2022-12-20T21:01:45.735Z,3.77
2022-12-20T21:04:13.718Z,3.71
2022-12-20T21:06:42.275Z,3.63
2022-12-20T21:09:11.554Z,3.60
2022-12-20T21:11:39.557Z,3.54
2022-12-20T21:14:08.245Z,3.49
2022-12-20T21:16:36.971Z,3.51
2022-12-20T21:19:05.908Z,3.55
2022-12-20T21:21:33.645Z,3.55
2022-12-20T21:24:01.942Z,3.52
2022-12-20T21:26:29.865Z,3.50
2022-12-20T21:28:59.917Z,3.47
2022-12-20T21:31:28.228Z,3.40
2022-12-20T21:33:57.718Z,3.34
2022-12-20T21:36:25.682Z,3.34
2022-12-20T21:38:56.937Z,3.31
2022-12-20T21:41:28.869Z,3.29
2022-12-20T21:44:01.221Z,3.29
2022-12-20T21:46:32.099Z,3.27
2022-12-20T21:49:00.845Z,3.29
2022-12-20T21:51:30.677Z,3.31
2022-12-20T21:54:00.980Z,3.23
2022-12-20T21:56:32.742Z,3.22
2022-12-20T21:59:02.551Z,3.24
2022-12-20T22:01:31.813Z,3.28
2022-12-20T22:04:05.952Z,3.32
2022-12-20T22:06:36.433Z,3.33
2022-12-20T22:09:07.484Z,3.35
2022-12-20T22:11:35.767Z,3.35
2022-12-20T22:14:03.822Z,3.35
2022-12-20T22:16:32.448Z,3.35
2022-12-20T22:19:01.679Z,3.34
2022-12-20T22:21:32.357Z,3.33
2022-12-20T22:24:03.106Z,3.36
2022-12-20T22:26:33.781Z,3.34
2022-12-20T22:29:06.072Z,3.34
2022-12-20T22:31:35.045Z,3.39
2022-12-20T22:34:03.425Z,3.36
2022-12-20T22:36:31.754Z,3.33
2022-12-20T22:38:59.750Z,3.33
2022-12-20T22:41:30.857Z,3.37
2022-12-20T22:43:59.851Z,3.40
2022-12-20T22:49:18.470Z,3.46
2022-12-20T22:51:59.148Z,3.45
2022-12-20T22:54:30.637Z,3.45
2022-12-20T22:56:58.219Z,3.45
2022-12-20T22:59:26.477Z,3.45
2022-12-20T23:01:54.167Z,3.55
2022-12-20T23:04:22.363Z,3.58
2022-12-20T23:06:50.009Z,3.59
2022-12-20T23:09:17.978Z,3.68
2022-12-20T23:12:04.555Z,3.69
2022-12-20T23:14:51.064Z,3.76
2022-12-20T23:17:18.648Z,3.77
2022-12-20T23:20:05.292Z,3.70
2022-12-20T23:22:39.447Z,3.69
2022-12-20T23:25:14.645Z,3.64
2022-12-20T23:27:44.454Z,3.63
2022-12-20T23:30:17.280Z,3.58
2022-12-20T23:32:45.244Z,3.53
2022-12-20T23:35:16.745Z,3.53
2022-12-20T23:37:46.054Z,3.49
2022-12-20T23:40:16.441Z,3.46
2022-12-20T23:42:44.976Z,3.39
2022-12-20T23:45:13.319Z,3.40
2022-12-20T23:47:41.053Z,3.39
2022-12-20T23:50:09.471Z,3.36
2022-12-20T23:52:37.018Z,3.39
2022-12-20T23:55:05.916Z,3.39
2022-12-20T23:57:33.540Z,3.41
